Time;durP1;ratioP1;P1;durP2;ratioP2;P2;SDS_P1;SDS_P2;PMS_P1;PMS_P2;Temp;Humidity;BMP_temperature;BMP_pressure;BME280_temperature;BME280_humidity;BME280_pressure;Samples;Min_cycle;Max_cycle;Signal;HPM_P1;HPM_P2
2023/10/16 00:00:40;;;;;;;;;;;;;;;;;;5155378;27;20002;-42
2023/10/16 00:03:06;;;;;;;;;;;;;;;;;;5155613;27;19930;-43
2023/10/16 00:05:33;;;;;;;;;;;;;;;;;;5154913;27;20014;-42
2023/10/16 00:08:05;;;;;;;;;;;;;;;;;;5154736;27;20279;-45
2023/10/16 00:10:31;;;;;;;;;;;;;;;;;;5155186;27;19976;-43
2023/10/16 00:13:03;;;;;;;;;;;;;;;;;;5155009;27;19923;-42
2023/10/16 00:15:29;;;;;;;;;;;;;;;;;;5154535;27;19967;-43
2023/10/16 00:17:57;;;;;;;;;;;;;;;;;;5154864;27;19923;-42
2023/10/16 00:20:25;;;;;;;;;;;;;;;;;;5155083;27;19927;-44
2023/10/16 00:22:50;;;;;;;;;;;;;;;;;;5154937;27;20344;-44
2023/10/16 00:25:16;;;;;;;;;;;;;;;;;;5155042;27;19923;-42
2023/10/16 00:27:42;;;;;;;;;;;;;;;;;;5154354;27;19970;-42
2023/10/16 00:30:08;;;;;;;;;;;;;;;;;;5154964;27;20363;-45
2023/10/16 00:32:36;;;;;;;;;;;;;;;;;;5155059;27;19930;-44
2023/10/16 00:35:03;;;;;;;;;;;;;;;;;;5152966;27;19923;-43
2023/10/16 00:37:28;;;;;;;;;;;;;;;;;;5154848;27;19927;-42
2023/10/16 00:39:56;;;;;;;;;;;;;;;;;;5154565;27;19923;-42
2023/10/16 00:42:21;;;;;;;;;;;;;;;;;;5154766;27;19927;-43
2023/10/16 00:44:47;;;;;;;;;;;;;;;;;;5152156;27;19923;-42
2023/10/16 00:47:13;;;;;;;;;;;;;;;;;;5153409;27;20344;-44
2023/10/16 00:49:38;;;;;;;;;;;;;;;;;;5135675;27;19938;-42
2023/10/16 00:52:04;;;;;;;;;;;;;;;;;;5134265;28;19930;-43
2023/10/16 00:54:30;;;;;;;;;;;;;;;;;;5133916;28;20010;-43
2023/10/16 00:56:57;;;;;;;;;;;;;;;;;;5133689;28;19930;-42
2023/10/16 00:59:23;;;;;;;;;;;;;;;;;;5133733;27;19924;-42
2023/10/16 01:01:51;;;;;;;;;;;;;;;;;;5133789;28;20402;-43
2023/10/16 01:04:19;;;;;;;;;;;;;;;;;;5133848;28;19924;-44
2023/10/16 01:06:44;;;;;;;;;;;;;;;;;;5133560;28;19927;-44
2023/10/16 01:09:12;;;;;;;;;;;;;;;;;;5133238;27;19970;-43
2023/10/16 01:11:38;;;;;;;;;;;;;;;;;;5133659;28;19923;-43
2023/10/16 01:14:04;;;;;;;;;;;;;;;;;;5133834;28;19972;-42
2023/10/16 01:16:29;;;;;;;;;;;;;;;;;;5133630;28;19977;-43
2023/10/16 01:18:55;;;;;;;;;;;;;;;;;;5132841;27;20014;-42
2023/10/16 01:21:20;;;;;;;;;;;;;;;;;;5133942;28;20018;-42
2023/10/16 01:23:46;;;;;;;;;;;;;;;;;;5133909;28;20010;-44
2023/10/16 01:26:13;;;;;;;;;;;;;;;;;;5133783;28;19950;-42
2023/10/16 01:28:39;;;;;;;;;;;;;;;;;;5133503;27;19927;-45
2023/10/16 01:31:04;;;;;;;;;;;;;;;;;;5133710;28;20019;-45
2023/10/16 01:33:30;;;;;;;;;;;;;;;;;;5133795;28;19938;-42
2023/10/16 01:35:56;;;;;;;;;;;;;;;;;;5148017;27;20304;-45
2023/10/16 01:38:24;;;;;;;;;;;;;;;;;;5153689;27;20004;-42
2023/10/16 01:41:05;;;;;;;;;;;;;;;;;;5153777;27;19954;-42
2023/10/16 01:43:30;;;;;;;;;;;;;;;;;;5150913;27;20114;-44
2023/10/16 01:45:58;;;;;;;;;;;;;;;;;;5147266;27;19980;-45
2023/10/16 01:48:24;;;;;;;;;;;;;;;;;;5151210;27;19976;-43
2023/10/16 01:50:50;;;;;;;;;;;;;;;;;;5153970;27;19927;-41
2023/10/16 01:53:20;;;;;;;;;;;;;;;;;;5153997;27;20283;-43
2023/10/16 01:55:51;;;;;;;;;;;;;;;;;;5154300;27;19931;-42
2023/10/16 01:58:16;;;;;;;;;;;;;;;;;;5153147;27;19958;-42
2023/10/16 02:00:43;;;;;;;;;;;;;;;;;;5153167;27;19970;-41
2023/10/16 02:03:09;;;;;;;;;;;;;;;;;;5152616;27;19923;-44
2023/10/16 02:05:34;;;;;;;;;;;;;;;;;;5153207;27;20279;-42
2023/10/16 02:08:00;;;;;;;;;;;;;;;;;;5152883;27;19975;-45
2023/10/16 02:10:25;;;;;;;;;;;;;;;;;;5153099;27;20006;-43
2023/10/16 02:12:51;;;;;;;;;;;;;;;;;;5153161;27;19927;-43
2023/10/16 02:15:21;;;;;;;;;;;;;;;;;;5153199;27;20018;-44
2023/10/16 02:17:49;;;;;;;;;;;;;;;;;;5152897;27;20418;-44
2023/10/16 02:20:15;;;;;;;;;;;;;;;;;;5153145;27;19934;-42
2023/10/16 02:22:41;;;;;;;;;;;;;;;;;;5153383;27;19927;-41
2023/10/16 02:25:17;;;;;;;;;;;;;;;;;;5152261;27;20291;-43
2023/10/16 02:27:43;;;;;;;;;;;;;;;;;;5152245;27;19927;-42
2023/10/16 02:32:53;;;;;;;;;;;;;;;;;;5153331;27;19923;-42
2023/10/16 02:35:19;;;;;;;;;;;;;;;;;;5152980;27;19923;-44
2023/10/16 02:37:44;;;;;;;;;;;;;;;;;;5150077;27;20401;-42
2023/10/16 02:40:10;;;;;;;;;;;;;;;;;;5131708;28;20380;-43
2023/10/16 02:42:38;;;;;;;;;;;;;;;;;;5131452;27;19984;-41
2023/10/16 02:45:04;;;;;;;;;;;;;;;;;;5157519;27;19927;-46
2023/10/16 02:47:30;;;;;;;;;;;;;;;;;;5152213;27;19927;-44
2023/10/16 02:49:59;;;;;;;;;;;;;;;;;;5151634;27;20345;-43
2023/10/16 02:52:24;;;;;;;;;;;;;;;;;;5151752;27;20367;-41
2023/10/16 02:54:50;;;;;;;;;;;;;;;;;;5152557;27;20386;-42
2023/10/16 02:57:15;;;;;;;;;;;;;;;;;;5152385;27;19923;-47
2023/10/16 02:59:43;;;;;;;;;;;;;;;;;;5132707;27;19927;-41
2023/10/16 03:02:17;;;;;;;;;;;;;;;;;;5131952;28;19923;-43
2023/10/16 03:04:43;;;;;;;;;;;;;;;;;;5131672;28;20299;-43
2023/10/16 03:07:09;;;;;;;;;;;;;;;;;;5131137;28;19966;-41
2023/10/16 03:09:35;;;;;;;;;;;;;;;;;;5130611;27;19924;-45
2023/10/16 03:12:08;;;;;;;;;;;;;;;;;;5131653;28;19968;-45
2023/10/16 03:14:56;;;;;;;;;;;;;;;;;;5130552;28;19927;-42
2023/10/16 03:17:25;;;;;;;;;;;;;;;;;;5115945;28;19964;-42
2023/10/16 03:19:51;;;;;;;;;;;;;;;;;;5130798;27;19973;-42
2023/10/16 03:22:17;;;;;;;;;;;;;;;;;;5131757;28;20022;-43
2023/10/16 03:24:45;;;;;;;;;;;;;;;;;;5110187;28;21358;-45
2023/10/16 03:27:11;;;;;;;;;;;;;;;;;;5111223;28;19924;-42
2023/10/16 03:29:36;;;;;;;;;;;;;;;;;;5111170;28;20014;-42
2023/10/16 03:32:03;;;;;;;;;;;;;;;;;;5111405;28;19971;-44
2023/10/16 03:34:31;;;;;;;;;;;;;;;;;;5111555;28;19923;-43
2023/10/16 03:37:01;;;;;;;;;;;;;;;;;;5111542;28;19959;-45
2023/10/16 03:39:27;;;;;;;;;;;;;;;;;;5125801;28;19969;-43
2023/10/16 03:41:52;;;;;;;;;;;;;;;;;;5131729;28;19962;-43
2023/10/16 03:44:18;;;;;;;;;;;;;;;;;;5130638;27;20006;-46
2023/10/16 03:46:44;;;;;;;;;;;;;;;;;;5151925;27;19923;-45
2023/10/16 03:49:11;;;;;;;;;;;;;;;;;;5123787;27;19928;-47
2023/10/16 03:51:38;;;;;;;;;;;;;;;;;;5130025;28;19924;-42
2023/10/16 03:54:03;;;;;;;;;;;;;;;;;;5131275;28;19924;-45
2023/10/16 03:56:30;;;;;;;;;;;;;;;;;;5131812;28;19955;-43
2023/10/16 03:58:57;;;;;;;;;;;;;;;;;;5118918;27;19963;-42
2023/10/16 04:01:27;;;;;;;;;;;;;;;;;;5111196;28;19959;-42
2023/10/16 04:04:03;;;;;;;;;;;;;;;;;;5111165;28;20391;-43
2023/10/16 04:06:30;;;;;;;;;;;;;;;;;;5110353;28;20360;-42
2023/10/16 04:08:55;;;;;;;;;;;;;;;;;;5109786;28;19927;-42
2023/10/16 04:11:21;;;;;;;;;;;;;;;;;;5110701;28;19924;-43
2023/10/16 04:13:47;;;;;;;;;;;;;;;;;;5110749;28;20283;-44
2023/10/16 04:16:25;;;;;;;;;;;;;;;;;;5110350;28;19967;-46
2023/10/16 04:18:50;;;;;;;;;;;;;;;;;;5110251;28;20284;-43
2023/10/16 04:26:46;;;;;;;;;;;;;;;;;;5190916;27;20017;-43
2023/10/16 04:31:54;;;;;;;;;;;;;;;;;;5191633;27;20046;-43
2023/10/16 04:47:47;;;;;;;;;;;;;;;;;;5186792;27;20394;-43
2023/10/16 04:50:14;;;;;;;;;;;;;;;;;;5149059;27;19927;-41
2023/10/16 04:53:08;;;;;;;;;;;;;;;;;;5161775;27;19923;-43
2023/10/16 05:00:57;;;;;;;;;;;;;;;;;;5190961;27;20013;-42
2023/10/16 05:03:24;;;;;;;;;;;;;;;;;;5190869;27;20009;-42
2023/10/16 05:06:04;;;;;;;;;;;;;;;;;;5190471;27;19968;-42
2023/10/16 05:08:34;;;;;;;;;;;;;;;;;;5189922;27;20176;-42
2023/10/16 05:11:32;;;;;;;;;;;;;;;;;;5191269;27;20014;-43
2023/10/16 05:16:32;;;;;;;;;;;;;;;;;;5158933;27;19927;-41
2023/10/16 05:19:44;;;;;;;;;;;;;;;;;;5182873;27;19934;-42
2023/10/16 06:14:34;;;;;;;;;;;;;;;;;;5137697;27;19977;-45
2023/10/16 06:16:41;;;;;;;;;;;;;;;;;;5141700;27;19970;-42
2023/10/16 06:19:14;;;;;;;;;;;;;;;;;;5147023;27;19965;-43
2023/10/16 06:21:40;;;;;;;;;;;;;;;;;;5153592;27;19966;-43
2023/10/16 06:24:17;;;;;;;;;;;;;;;;;;5152825;27;20007;-43
2023/10/16 06:26:46;;;;;;;;;;;;;;;;;;5145417;27;20023;-43
2023/10/16 06:29:11;;;;;;;;;;;;;;;;;;5154645;27;20049;-43
2023/10/16 06:31:49;;;;;;;;;;;;;;;;;;5154385;27;20790;-44
2023/10/16 06:34:15;;;;;;;;;;;;;;;;;;5140184;27;19930;-45
2023/10/16 06:36:41;;;;;;;;;;;;;;;;;;5134391;27;19924;-41
2023/10/16 06:39:19;;;;;;;;;;;;;;;;;;5138202;27;20367;-42
2023/10/16 06:41:45;;;;;;;;;;;;;;;;;;5143307;27;19931;-45
2023/10/16 06:44:16;;;;;;;;;;;;;;;;;;5137212;27;20001;-44
2023/10/16 06:46:41;;;;;;;;;;;;;;;;;;5135248;27;20364;-41
2023/10/16 06:49:09;;;;;;;;;;;;;;;;;;5126604;27;20027;-42
2023/10/16 06:51:34;;;;;;;;;;;;;;;;;;5130057;27;19927;-44
2023/10/16 06:54:01;;;;;;;;;;;;;;;;;;5136777;27;20017;-42
2023/10/16 06:56:31;;;;;;;;;;;;;;;;;;5141041;27;19931;-43
2023/10/16 06:58:56;;;;;;;;;;;;;;;;;;5133591;27;19934;-42
2023/10/16 07:01:22;;;;;;;;;;;;;;;;;;5128802;27;19970;-41
2023/10/16 07:03:47;;;;;;;;;;;;;;;;;;5126392;27;22516;-43
2023/10/16 07:06:14;;;;;;;;;;;;;;;;;;5126910;27;20022;-41
2023/10/16 07:08:41;;;;;;;;;;;;;;;;;;5120736;27;20010;-42
2023/10/16 07:11:11;;;;;;;;;;;;;;;;;;5127015;27;20135;-45
2023/10/16 07:13:38;;;;;;;;;;;;;;;;;;5135945;27;19941;-41
2023/10/16 07:16:04;;;;;;;;;;;;;;;;;;5138401;27;19923;-42
2023/10/16 07:18:31;;;;;;;;;;;;;;;;;;5132862;27;19927;-41
2023/10/16 07:21:00;;;;;;;;;;;;;;;;;;5120103;27;19934;-42
2023/10/16 07:23:29;;;;;;;;;;;;;;;;;;5122967;27;19931;-44
2023/10/16 07:25:54;;;;;;;;;;;;;;;;;;5120104;27;19958;-41
2023/10/16 07:28:20;;;;;;;;;;;;;;;;;;5128536;27;19988;-44
2023/10/16 07:30:45;;;;;;;;;;;;;;;;;;5132040;27;19973;-44
2023/10/16 07:33:14;;;;;;;;;;;;;;;;;;5058943;28;20889;-45
2023/10/16 07:35:41;;;;;;;;;;;;;;;;;;5053117;28;20419;-44
2023/10/16 07:38:09;;;;;;;;;;;;;;;;;;5053745;28;20372;-41
2023/10/16 07:40:37;;;;;;;;;;;;;;;;;;5051451;28;19975;-41
2023/10/16 07:43:02;;;;;;;;;;;;;;;;;;5053483;28;20141;-42
2023/10/16 07:45:32;;;;;;;;;;;;;;;;;;5050438;28;19954;-42
2023/10/16 07:48:07;;;;;;;;;;;;;;;;;;5052298;28;19971;-41
2023/10/16 07:50:33;;;;;;;;;;;;;;;;;;5061705;27;20575;-41
2023/10/16 07:53:01;;;;;;;;;;;;;;;;;;5117814;27;20018;-41
2023/10/16 07:55:38;;;;;;;;;;;;;;;;;;5115395;27;19962;-42
2023/10/16 07:58:11;;;;;;;;;;;;;;;;;;5114025;27;20067;-42
2023/10/16 08:00:42;;;;;;;;;;;;;;;;;;5114664;27;19927;-41
2023/10/16 08:03:13;;;;;;;;;;;;;;;;;;5108685;27;19996;-43
2023/10/16 08:05:47;;;;;;;;;;;;;;;;;;5114624;27;20009;-41
2023/10/16 08:08:12;;;;;;;;;;;;;;;;;;5114616;27;19927;-46
2023/10/16 08:10:45;;;;;;;;;;;;;;;;;;5115901;27;19935;-45
2023/10/16 08:13:11;;;;;;;;;;;;;;;;;;5107375;27;19927;-43
2023/10/16 08:15:37;;;;;;;;;;;;;;;;;;5114615;27;20395;-42
2023/10/16 08:18:07;;;;;;;;;;;;;;;;;;5123499;27;20579;-43
2023/10/16 08:20:49;;;;;;;;;;;;;;;;;;5116225;27;19951;-43
2023/10/16 08:23:14;;;;;;;;;;;;;;;;;;5110873;27;20020;-43
2023/10/16 08:25:40;;;;;;;;;;;;;;;;;;5119085;27;20498;-43
2023/10/16 08:28:21;;;;;;;;;;;;;;;;;;5117334;27;19987;-42
2023/10/16 08:33:30;;;;;;;;;;;;;;;;;;5137091;27;20146;-48
2023/10/16 08:35:58;;;;;;;;;;;;;;;;;;5121000;27;19955;-49
2023/10/16 08:38:26;;;;;;;;;;;;;;;;;;5117560;27;20022;-49
2023/10/16 08:40:57;;;;;;;;;;;;;;;;;;5113194;27;20571;-47
2023/10/16 08:43:31;;;;;;;;;;;;;;;;;;5120854;27;19975;-48
2023/10/16 08:45:56;;;;;;;;;;;;;;;;;;5122919;27;19967;-50
2023/10/16 08:48:22;;;;;;;;;;;;;;;;;;5130783;27;20307;-49
2023/10/16 08:50:57;;;;;;;;;;;;;;;;;;5128040;27;20701;-48
2023/10/16 08:53:37;;;;;;;;;;;;;;;;;;5128215;27;20045;-47
2023/10/16 08:56:03;;;;;;;;;;;;;;;;;;5127571;27;19966;-49
2023/10/16 08:58:28;;;;;;;;;;;;;;;;;;5129839;27;20343;-51
2023/10/16 09:00:55;;;;;;;;;;;;;;;;;;5130782;27;19923;-50
2023/10/16 09:03:20;;;;;;;;;;;;;;;;;;5127478;27;19942;-47
2023/10/16 09:05:46;;;;;;;;;;;;;;;;;;5133330;27;20441;-47
2023/10/16 09:08:14;;;;;;;;;;;;;;;;;;5132146;27;20280;-48
2023/10/16 09:10:40;;;;;;;;;;;;;;;;;;5131237;27;20941;-48
2023/10/16 09:13:26;;;;;;;;;;;;;;;;;;5127112;27;19932;-46
2023/10/16 09:15:51;;;;;;;;;;;;;;;;;;5116556;27;20374;-49
2023/10/16 09:18:16;;;;;;;;;;;;;;;;;;5123807;27;19931;-48
2023/10/16 09:20:42;;;;;;;;;;;;;;;;;;5122736;27;20054;-49
2023/10/16 09:23:08;;;;;;;;;;;;;;;;;;5128659;27;19997;-49
2023/10/16 09:25:33;;;;;;;;;;;;;;;;;;5116444;27;19931;-46
2023/10/16 09:28:04;;;;;;;;;;;;;;;;;;5120596;27;19935;-45
2023/10/16 09:30:32;;;;;;;;;;;;;;;;;;5118853;27;19930;-48
2023/10/16 09:32:57;;;;;;;;;;;;;;;;;;5111940;27;20771;-45
2023/10/16 09:35:30;;;;;;;;;;;;;;;;;;5106742;27;19927;-49
2023/10/16 09:37:57;;;;;;;;;;;;;;;;;;5108764;27;20375;-42
2023/10/16 09:40:37;;;;;;;;;;;;;;;;;;5108845;27;19950;-41
2023/10/16 09:43:06;;;;;;;;;;;;;;;;;;5109857;27;19932;-41
2023/10/16 09:45:32;;;;;;;;;;;;;;;;;;5098040;27;19993;-42
2023/10/16 09:47:57;;;;;;;;;;;;;;;;;;5106619;28;19966;-43
2023/10/16 09:50:24;;;;;;;;;;;;;;;;;;5108992;28;20019;-42
2023/10/16 09:52:49;;;;;;;;;;;;;;;;;;5107952;28;19950;-42
2023/10/16 09:55:15;;;;;;;;;;;;;;;;;;5109470;28;20669;-41
2023/10/16 09:57:41;;;;;;;;;;;;;;;;;;5107973;28;19930;-41
2023/10/16 10:00:38;;;;;;;;;;;;;;;;;;5110894;28;19923;-41
2023/10/16 10:02:52;;;;;;;;;;;;;;;;;;5096334;28;19946;-42
2023/10/16 10:05:21;;;;;;;;;;;;;;;;;;5110934;28;20370;-43
2023/10/16 10:07:47;;;;;;;;;;;;;;;;;;5108823;28;19950;-43
2023/10/16 10:13:01;;;;;;;;;;;;;;;;;;5098223;28;19963;-41
2023/10/16 10:15:27;;;;;;;;;;;;;;;;;;5109510;28;19923;-42
2023/10/16 10:17:54;;;;;;;;;;;;;;;;;;5111650;28;19934;-41
2023/10/16 10:20:24;;;;;;;;;;;;;;;;;;5108509;27;20637;-45
2023/10/16 10:22:53;;;;;;;;;;;;;;;;;;5112930;28;19987;-41
2023/10/16 10:25:26;;;;;;;;;;;;;;;;;;5111109;28;19939;-42
2023/10/16 10:27:51;;;;;;;;;;;;;;;;;;5108539;28;20022;-44
2023/10/16 10:30:17;;;;;;;;;;;;;;;;;;5107940;28;19935;-45
2023/10/16 10:32:43;;;;;;;;;;;;;;;;;;5112051;28;19953;-45
2023/10/16 10:35:09;;;;;;;;;;;;;;;;;;5112181;27;19932;-42
2023/10/16 10:37:36;;;;;;;;;;;;;;;;;;5115742;27;19958;-41
2023/10/16 10:40:01;;;;;;;;;;;;;;;;;;5103789;28;19935;-43
2023/10/16 10:42:28;;;;;;;;;;;;;;;;;;5098868;28;20046;-42
2023/10/16 10:44:54;;;;;;;;;;;;;;;;;;5109093;27;20432;-42
2023/10/16 10:47:20;;;;;;;;;;;;;;;;;;5105087;27;19927;-44
2023/10/16 10:49:46;;;;;;;;;;;;;;;;;;5099605;28;19927;-43
2023/10/16 10:52:12;;;;;;;;;;;;;;;;;;5106310;28;19930;-41
2023/10/16 10:54:48;;;;;;;;;;;;;;;;;;5106118;27;19939;-41
2023/10/16 10:57:14;;;;;;;;;;;;;;;;;;5107233;27;20454;-45
2023/10/16 10:59:40;;;;;;;;;;;;;;;;;;5108790;27;19988;-41
2023/10/16 11:02:22;;;;;;;;;;;;;;;;;;5108014;27;20371;-42
2023/10/16 11:04:53;;;;;;;;;;;;;;;;;;5120493;27;19935;-43
2023/10/16 11:07:26;;;;;;;;;;;;;;;;;;5103819;28;20438;-44
2023/10/16 11:09:51;;;;;;;;;;;;;;;;;;5108751;27;20044;-42
2023/10/16 11:12:17;;;;;;;;;;;;;;;;;;5105615;27;20022;-43
2023/10/16 11:14:42;;;;;;;;;;;;;;;;;;5118089;27;19930;-43
2023/10/16 11:17:08;;;;;;;;;;;;;;;;;;5114448;27;20402;-43
2023/10/16 11:19:38;;;;;;;;;;;;;;;;;;5112725;27;20095;-43
2023/10/16 11:22:07;;;;;;;;;;;;;;;;;;5112744;27;19927;-44
2023/10/16 11:24:36;;;;;;;;;;;;;;;;;;5119121;27;20386;-42
2023/10/16 11:27:01;;;;;;;;;;;;;;;;;;5105273;28;20665;-43
2023/10/16 11:29:26;;;;;;;;;;;;;;;;;;5106776;28;20382;-46
2023/10/16 11:32:06;;;;;;;;;;;;;;;;;;5100768;28;20240;-42
2023/10/16 11:34:32;;;;;;;;;;;;;;;;;;5092936;27;20124;-43
2023/10/16 11:37:06;;;;;;;;;;;;;;;;;;5090221;27;19980;-45
2023/10/16 11:39:33;;;;;;;;;;;;;;;;;;5100373;28;19967;-41
2023/10/16 11:41:58;;;;;;;;;;;;;;;;;;5101742;28;19924;-42
2023/10/16 11:44:26;;;;;;;;;;;;;;;;;;5106968;27;19931;-44
2023/10/16 11:46:52;;;;;;;;;;;;;;;;;;5103086;27;19958;-45
2023/10/16 11:51:53;;;;;;;;;;;;;;;;;;5157092;27;20018;-41
2023/10/16 11:54:20;;;;;;;;;;;;;;;;;;5138831;27;19931;-41
2023/10/16 11:56:47;;;;;;;;;;;;;;;;;;5125221;27;20395;-48
2023/10/16 11:59:12;;;;;;;;;;;;;;;;;;5128319;27;19984;-47
2023/10/16 12:01:37;;;;;;;;;;;;;;;;;;5124990;27;20384;-44
2023/10/16 12:04:20;;;;;;;;;;;;;;;;;;5123959;27;19931;-46
2023/10/16 12:06:45;;;;;;;;;;;;;;;;;;5126407;27;20025;-44
2023/10/16 12:09:19;;;;;;;;;;;;;;;;;;5125570;27;19927;-42
2023/10/16 12:11:44;;;;;;;;;;;;;;;;;;5129578;27;20412;-47
2023/10/16 12:14:13;;;;;;;;;;;;;;;;;;5131731;27;20511;-48
2023/10/16 12:16:38;;;;;;;;;;;;;;;;;;5130331;27;20251;-48
2023/10/16 12:19:09;;;;;;;;;;;;;;;;;;5134135;27;20180;-45
2023/10/16 12:21:35;;;;;;;;;;;;;;;;;;5134181;27;19923;-47
2023/10/16 12:24:01;;;;;;;;;;;;;;;;;;5129808;27;20021;-47
2023/10/16 12:26:27;;;;;;;;;;;;;;;;;;5126706;27;19934;-45
2023/10/16 12:28:52;;;;;;;;;;;;;;;;;;5125502;27;20469;-46
2023/10/16 12:31:18;;;;;;;;;;;;;;;;;;5124342;27;19927;-45
2023/10/16 12:33:44;;;;;;;;;;;;;;;;;;5129525;27;19930;-47
2023/10/16 12:36:11;;;;;;;;;;;;;;;;;;5130605;27;20328;-44
2023/10/16 12:38:36;;;;;;;;;;;;;;;;;;5117743;27;20716;-46
2023/10/16 12:41:05;;;;;;;;;;;;;;;;;;5131903;27;20046;-47
2023/10/16 12:43:30;;;;;;;;;;;;;;;;;;5124639;27;20354;-44
2023/10/16 12:45:57;;;;;;;;;;;;;;;;;;5117959;27;20411;-48
2023/10/16 12:48:23;;;;;;;;;;;;;;;;;;5124998;27;20001;-48
2023/10/16 12:50:49;;;;;;;;;;;;;;;;;;5119085;27;19932;-46
2023/10/16 12:53:29;;;;;;;;;;;;;;;;;;5123530;27;19967;-46
2023/10/16 12:55:55;;;;;;;;;;;;;;;;;;5125387;27;20047;-47
2023/10/16 12:58:22;;;;;;;;;;;;;;;;;;5121145;27;19971;-46
2023/10/16 13:00:50;;;;;;;;;;;;;;;;;;5117655;27;20060;-47
2023/10/16 13:03:15;;;;;;;;;;;;;;;;;;5105707;27;19923;-44
2023/10/16 13:05:41;;;;;;;;;;;;;;;;;;5105956;28;19969;-46
2023/10/16 13:08:07;;;;;;;;;;;;;;;;;;5109041;28;19934;-48
2023/10/16 13:10:33;;;;;;;;;;;;;;;;;;5110391;28;19938;-45
2023/10/16 13:12:59;;;;;;;;;;;;;;;;;;5112882;28;19928;-49
2023/10/16 13:15:25;;;;;;;;;;;;;;;;;;5115379;28;19932;-49
2023/10/16 13:17:51;;;;;;;;;;;;;;;;;;5114057;28;19983;-47
2023/10/16 13:20:17;;;;;;;;;;;;;;;;;;5110250;28;20399;-47
2023/10/16 13:22:49;;;;;;;;;;;;;;;;;;5111881;28;20419;-48
2023/10/16 13:25:14;;;;;;;;;;;;;;;;;;5124402;28;19923;-47
2023/10/16 13:27:40;;;;;;;;;;;;;;;;;;5120510;28;19930;-45
2023/10/16 13:30:05;;;;;;;;;;;;;;;;;;5107324;28;20150;-48
2023/10/16 13:32:31;;;;;;;;;;;;;;;;;;5115910;28;19938;-49
2023/10/16 13:35:00;;;;;;;;;;;;;;;;;;5109848;28;20011;-44
2023/10/16 13:37:25;;;;;;;;;;;;;;;;;;5017376;28;20418;-49
2023/10/16 13:39:52;;;;;;;;;;;;;;;;;;5022146;28;19975;-48
2023/10/16 13:42:20;;;;;;;;;;;;;;;;;;5019015;28;20038;-44
2023/10/16 13:44:46;;;;;;;;;;;;;;;;;;5020701;28;19965;-47
2023/10/16 13:47:13;;;;;;;;;;;;;;;;;;5019459;28;19936;-49
2023/10/16 13:49:39;;;;;;;;;;;;;;;;;;5012898;28;19968;-48
2023/10/16 13:52:08;;;;;;;;;;;;;;;;;;5020014;28;20280;-44
2023/10/16 13:54:34;;;;;;;;;;;;;;;;;;5029372;28;19979;-44
2023/10/16 13:57:01;;;;;;;;;;;;;;;;;;5129609;28;19934;-41
2023/10/16 13:59:27;;;;;;;;;;;;;;;;;;5127462;28;19970;-45
2023/10/16 14:01:52;;;;;;;;;;;;;;;;;;5125390;28;19928;-45
2023/10/16 14:04:18;;;;;;;;;;;;;;;;;;5126237;28;19927;-42
2023/10/16 14:06:46;;;;;;;;;;;;;;;;;;5128846;28;20431;-46
2023/10/16 14:09:19;;;;;;;;;;;;;;;;;;5117749;28;19935;-42
2023/10/16 14:11:47;;;;;;;;;;;;;;;;;;5116872;28;19935;-41
2023/10/16 14:14:15;;;;;;;;;;;;;;;;;;5126230;27;20394;-41
2023/10/16 14:16:41;;;;;;;;;;;;;;;;;;5129192;28;20268;-42
2023/10/16 14:19:12;;;;;;;;;;;;;;;;;;5128538;28;19950;-41
2023/10/16 14:21:40;;;;;;;;;;;;;;;;;;5128497;28;19927;-42
2023/10/16 14:24:05;;;;;;;;;;;;;;;;;;5128754;28;19992;-46
2023/10/16 14:26:34;;;;;;;;;;;;;;;;;;5128598;28;20022;-42
2023/10/16 14:28:59;;;;;;;;;;;;;;;;;;5128410;28;19962;-43
2023/10/16 14:31:26;;;;;;;;;;;;;;;;;;5128361;28;20022;-42
2023/10/16 14:33:53;;;;;;;;;;;;;;;;;;5129024;28;19972;-41
2023/10/16 14:36:24;;;;;;;;;;;;;;;;;;5127803;28;19927;-41
2023/10/16 14:38:50;;;;;;;;;;;;;;;;;;5128146;28;19934;-42
2023/10/16 14:41:16;;;;;;;;;;;;;;;;;;5126576;28;19924;-41
2023/10/16 14:43:45;;;;;;;;;;;;;;;;;;5118673;27;20295;-42
2023/10/16 14:46:10;;;;;;;;;;;;;;;;;;5126020;28;19939;-44
2023/10/16 14:48:37;;;;;;;;;;;;;;;;;;5126763;28;19975;-42
2023/10/16 14:51:04;;;;;;;;;;;;;;;;;;5127879;28;19927;-40
2023/10/16 14:53:30;;;;;;;;;;;;;;;;;;5128480;28;19934;-44
2023/10/16 14:55:56;;;;;;;;;;;;;;;;;;5128628;28;19924;-43
2023/10/16 14:58:23;;;;;;;;;;;;;;;;;;5128478;28;19935;-42
2023/10/16 15:01:15;;;;;;;;;;;;;;;;;;5112986;28;19928;-41
2023/10/16 15:03:42;;;;;;;;;;;;;;;;;;5128774;28;20023;-44
2023/10/16 15:06:08;;;;;;;;;;;;;;;;;;5129120;28;19927;-41
2023/10/16 15:08:34;;;;;;;;;;;;;;;;;;5127863;28;19927;-40
2023/10/16 15:10:59;;;;;;;;;;;;;;;;;;5127902;28;19923;-45
2023/10/16 15:13:27;;;;;;;;;;;;;;;;;;5129032;28;20014;-40
2023/10/16 15:15:53;;;;;;;;;;;;;;;;;;5128553;28;19962;-42
2023/10/16 15:18:19;;;;;;;;;;;;;;;;;;5128378;28;20001;-40
2023/10/16 15:20:45;;;;;;;;;;;;;;;;;;5128084;28;19963;-42
2023/10/16 15:23:11;;;;;;;;;;;;;;;;;;5128579;28;19927;-41
2023/10/16 15:25:37;;;;;;;;;;;;;;;;;;5127845;27;19977;-42
2023/10/16 15:28:02;;;;;;;;;;;;;;;;;;5126959;28;20379;-42
2023/10/16 15:30:28;;;;;;;;;;;;;;;;;;5125444;28;19931;-42
2023/10/16 15:32:53;;;;;;;;;;;;;;;;;;5128303;28;20430;-44
2023/10/16 15:35:20;;;;;;;;;;;;;;;;;;5128415;28;20183;-44
2023/10/16 15:37:45;;;;;;;;;;;;;;;;;;5127733;28;19954;-45
2023/10/16 15:40:17;;;;;;;;;;;;;;;;;;5128049;28;19959;-42
2023/10/16 15:42:42;;;;;;;;;;;;;;;;;;5126478;28;20275;-42
2023/10/16 15:45:08;;;;;;;;;;;;;;;;;;5144643;27;19927;-42
2023/10/16 15:47:33;;;;;;;;;;;;;;;;;;5140583;27;20019;-44
2023/10/16 15:49:58;;;;;;;;;;;;;;;;;;5106548;28;20410;-42
2023/10/16 15:52:24;;;;;;;;;;;;;;;;;;5120464;28;20069;-42
2023/10/16 15:54:49;;;;;;;;;;;;;;;;;;5128673;28;19963;-44
2023/10/16 15:57:15;;;;;;;;;;;;;;;;;;5128242;28;19930;-42
2023/10/16 15:59:42;;;;;;;;;;;;;;;;;;5127373;28;19974;-44
2023/10/16 16:02:07;;;;;;;;;;;;;;;;;;5127640;28;19970;-42
2023/10/16 16:04:33;;;;;;;;;;;;;;;;;;5127896;28;19934;-42
2023/10/16 16:07:01;;;;;;;;;;;;;;;;;;5128101;28;19924;-41
2023/10/16 16:09:27;;;;;;;;;;;;;;;;;;5127094;28;19923;-42
2023/10/16 16:11:52;;;;;;;;;;;;;;;;;;5127478;28;19994;-44
2023/10/16 16:14:18;;;;;;;;;;;;;;;;;;5127629;28;20022;-40
2023/10/16 16:16:50;;;;;;;;;;;;;;;;;;5128007;28;19934;-41
2023/10/16 16:19:15;;;;;;;;;;;;;;;;;;5126791;28;20283;-41
2023/10/16 16:21:41;;;;;;;;;;;;;;;;;;5127493;28;20415;-44
2023/10/16 16:24:06;;;;;;;;;;;;;;;;;;5127957;28;20445;-42
2023/10/16 16:26:32;;;;;;;;;;;;;;;;;;5128498;28;19970;-41
2023/10/16 16:28:57;;;;;;;;;;;;;;;;;;5126603;28;19923;-43
2023/10/16 16:31:24;;;;;;;;;;;;;;;;;;5126459;28;19985;-42
2023/10/16 16:33:52;;;;;;;;;;;;;;;;;;5128192;28;19923;-41
2023/10/16 16:36:19;;;;;;;;;;;;;;;;;;5128124;27;20372;-41
2023/10/16 16:38:46;;;;;;;;;;;;;;;;;;5130739;28;19927;-42
2023/10/16 16:41:12;;;;;;;;;;;;;;;;;;5130718;28;19927;-41
2023/10/16 16:43:37;;;;;;;;;;;;;;;;;;5140860;27;19931;-45
2023/10/16 16:46:03;;;;;;;;;;;;;;;;;;5152351;27;19923;-44
2023/10/16 16:48:29;;;;;;;;;;;;;;;;;;5142451;27;19923;-41
2023/10/16 16:50:56;;;;;;;;;;;;;;;;;;5130211;28;19927;-41
2023/10/16 16:53:21;;;;;;;;;;;;;;;;;;5130950;28;19924;-41
2023/10/16 16:55:47;;;;;;;;;;;;;;;;;;5131327;28;19927;-41
2023/10/16 16:58:12;;;;;;;;;;;;;;;;;;5130382;28;20352;-42
2023/10/16 17:00:38;;;;;;;;;;;;;;;;;;5130062;28;20015;-42
2023/10/16 17:03:03;;;;;;;;;;;;;;;;;;5129704;28;19972;-41
2023/10/16 17:05:29;;;;;;;;;;;;;;;;;;5130958;28;19930;-41
2023/10/16 17:07:56;;;;;;;;;;;;;;;;;;5130368;28;19923;-42
2023/10/16 17:10:27;;;;;;;;;;;;;;;;;;5128606;28;20439;-43
2023/10/16 17:12:54;;;;;;;;;;;;;;;;;;5128825;28;19968;-42
2023/10/16 17:15:20;;;;;;;;;;;;;;;;;;5130761;28;19959;-44
2023/10/16 17:17:45;;;;;;;;;;;;;;;;;;5130723;28;20260;-45
2023/10/16 17:20:11;;;;;;;;;;;;;;;;;;5130100;28;20006;-43
2023/10/16 17:22:37;;;;;;;;;;;;;;;;;;5130654;28;19927;-41
2023/10/16 17:25:22;;;;;;;;;;;;;;;;;;5115861;28;20372;-43
2023/10/16 17:27:49;;;;;;;;;;;;;;;;;;5130595;28;19978;-41
2023/10/16 17:30:14;;;;;;;;;;;;;;;;;;5129659;28;19931;-43
2023/10/16 17:32:40;;;;;;;;;;;;;;;;;;5130180;28;20025;-43
2023/10/16 17:35:05;;;;;;;;;;;;;;;;;;5130208;28;20368;-42
2023/10/16 17:37:31;;;;;;;;;;;;;;;;;;5130643;28;20551;-42
2023/10/16 17:39:57;;;;;;;;;;;;;;;;;;5130178;28;20372;-42
2023/10/16 17:42:23;;;;;;;;;;;;;;;;;;5131973;27;19993;-45
2023/10/16 17:44:49;;;;;;;;;;;;;;;;;;5151126;27;20267;-42
2023/10/16 17:47:14;;;;;;;;;;;;;;;;;;5134916;27;19998;-44
2023/10/16 17:49:41;;;;;;;;;;;;;;;;;;5128920;27;19972;-42
2023/10/16 17:52:07;;;;;;;;;;;;;;;;;;5130070;28;19963;-41
2023/10/16 17:54:33;;;;;;;;;;;;;;;;;;5130628;28;19923;-43
2023/10/16 17:56:59;;;;;;;;;;;;;;;;;;5130511;28;20011;-42
2023/10/16 17:59:24;;;;;;;;;;;;;;;;;;5130050;28;20404;-41
2023/10/16 18:01:50;;;;;;;;;;;;;;;;;;5129696;28;19924;-43
2023/10/16 18:04:17;;;;;;;;;;;;;;;;;;5130569;28;20045;-43
2023/10/16 18:06:42;;;;;;;;;;;;;;;;;;5130477;28;20003;-42
2023/10/16 18:09:08;;;;;;;;;;;;;;;;;;5129270;28;19971;-40
2023/10/16 18:11:34;;;;;;;;;;;;;;;;;;5129288;28;19968;-41
2023/10/16 18:13:59;;;;;;;;;;;;;;;;;;5129840;28;20368;-42
2023/10/16 18:16:25;;;;;;;;;;;;;;;;;;5130707;28;20022;-43
2023/10/16 18:18:50;;;;;;;;;;;;;;;;;;5129620;28;19934;-43
2023/10/16 18:21:16;;;;;;;;;;;;;;;;;;5129916;28;20010;-42